Time;durP1;ratioP1;P1;durP2;ratioP2;P2;SDS_P1;SDS_P2;PMS_P1;PMS_P2;Temp;Humidity;BMP_temperature;BMP_pressure;BME280_temperature;BME280_humidity;BME280_pressure;Samples;Min_cycle;Max_cycle;Signal;HPM_P1;HPM_P2
2023/10/15 00:02:06;;;;;;;9.50;4.60;;;;;;;19.20;100.00;98797.90;104500;1254;61719;-61
2023/10/15 00:04:33;;;;;;;4.70;3.90;;;;;;;19.20;100.00;98792.29;104819;1251;60565;-61
2023/10/15 00:07:05;;;;;;;10.00;4.60;;;;;;;19.19;100.00;98793.11;104594;1251;73028;-60
2023/10/15 00:09:36;;;;;;;6.30;4.80;;;;;;;19.16;100.00;98788.67;104482;1256;69293;-61
2023/10/15 00:12:03;;;;;;;5.80;4.50;;;;;;;19.15;100.00;98784.61;104318;1257;73442;-61
2023/10/15 00:14:30;;;;;;;7.90;3.90;;;;;;;19.15;100.00;98784.42;104351;1255;62105;-62
2023/10/15 00:17:01;;;;;;;5.00;3.70;;;;;;;19.13;100.00;98784.95;104402;1267;60048;-60
2023/10/15 00:19:28;;;;;;;6.80;4.60;;;;;;;19.11;100.00;98778.19;104445;1254;73613;-61
2023/10/15 00:24:48;;;;;;;9.20;4.60;;;;;;;18.51;100.00;98779.13;101478;1289;600789;-60
2023/10/15 00:27:17;;;;;;;;;;;;;;;18.91;100.00;98777.89;103650;1269;60385;-60
2023/10/15 00:29:45;;;;;;;9.00;5.00;;;;;;;18.93;100.00;98772.86;103637;1265;59480;-60
2023/10/15 00:32:13;;;;;;;6.00;4.20;;;;;;;18.91;100.00;98768.33;103940;1266;72928;-61
2023/10/15 00:34:40;;;;;;;12.00;4.30;;;;;;;18.88;100.00;98767.90;106671;1265;69368;-61
2023/10/15 00:37:08;;;;;;;7.80;4.60;;;;;;;18.89;100.00;98771.17;104339;1269;71748;-61
2023/10/15 00:39:41;;;;;;;11.50;4.90;;;;;;;18.89;100.00;98772.95;104187;1269;240773;-60
2023/10/15 00:42:09;;;;;;;8.70;4.20;;;;;;;18.88;100.00;98775.66;104090;1267;60110;-61
2023/10/15 00:44:37;;;;;;;8.10;4.00;;;;;;;18.86;100.00;98773.56;104025;1269;72074;-61
2023/10/15 00:47:05;;;;;;;7.30;4.30;;;;;;;18.85;100.00;98773.77;103907;1270;69782;-60
2023/10/15 00:49:33;;;;;;;8.60;4.40;;;;;;;18.86;100.00;98774.27;103592;1277;71826;-61
2023/10/15 00:52:04;;;;;;;9.40;4.50;;;;;;;18.84;100.00;98774.38;103594;1278;62075;-60
2023/10/15 00:54:33;;;;;;;7.00;4.00;;;;;;;18.84;100.00;98773.20;103591;1285;60253;-62
2023/10/15 00:57:25;;;;;;;8.30;4.20;;;;;;;18.82;100.00;98772.46;104117;1259;72749;-60
2023/10/15 00:59:53;;;;;;;7.50;4.20;;;;;;;18.77;100.00;98772.15;103997;1254;69077;-63
2023/10/15 01:02:22;;;;;;;9.90;4.60;;;;;;;18.73;100.00;98775.88;104193;1263;72516;-60
2023/10/15 01:04:53;;;;;;;9.20;4.60;;;;;;;18.70;100.00;98773.36;103949;1271;61471;-62
2023/10/15 01:07:33;;;;;;;4.20;3.80;;;;;;;18.68;100.00;98772.82;104438;1260;59931;-61
2023/10/15 01:10:01;;;;;;;5.20;4.10;;;;;;;18.58;100.00;98769.61;104425;1262;72889;-60
2023/10/15 01:12:32;;;;;;;11.20;4.60;;;;;;;18.59;100.00;98770.61;104320;1255;69970;-61
2023/10/15 01:15:00;;;;;;;6.30;4.20;;;;;;;18.59;100.00;98768.27;104405;1254;72533;-61
2023/10/15 01:17:36;;;;;;;;;;;;;;;18.58;100.00;98770.90;104175;1259;61962;-60
2023/10/15 01:20:07;;;;;;;9.50;4.80;;;;;;;18.57;100.00;98766.75;104409;1254;59811;-60
2023/10/15 01:22:39;;;;;;;6.30;4.00;;;;;;;18.53;100.00;98763.33;104310;1254;73010;-61
2023/10/15 01:25:24;;;;;;;8.60;4.40;;;;;;;18.49;100.00;98765.59;104255;1276;69211;-61
2023/10/15 01:27:58;;;;;;;6.80;4.40;;;;;;;18.45;100.00;98761.54;104272;1258;72898;-60
2023/10/15 01:30:27;;;;;;;8.60;4.30;;;;;;;18.39;100.00;98768.50;104211;1270;61654;-60
2023/10/15 01:32:55;;;;;;;5.00;4.30;;;;;;;18.36;100.00;98761.80;104087;1263;59803;-62
2023/10/15 01:35:24;;;;;;;10.40;4.20;;;;;;;18.35;100.00;98759.09;104360;1257;73726;-61
2023/10/15 01:38:06;;;;;;;7.50;5.30;;;;;;;18.32;100.00;98758.32;104474;1258;70206;-62
2023/10/15 01:40:37;;;;;;;9.40;3.90;;;;;;;18.28;100.00;98752.02;104393;1261;73299;-62
2023/10/15 01:43:12;;;;;;;8.20;4.10;;;;;;;18.30;100.00;98749.05;104231;1257;61434;-62
2023/10/15 01:45:41;;;;;;;7.60;3.70;;;;;;;18.30;100.00;98741.04;104229;1263;59710;-62
2023/10/15 01:48:24;;;;;;;7.20;4.90;;;;;;;18.23;100.00;98745.24;104323;1263;73726;-62
2023/10/15 01:50:52;;;;;;;6.80;4.90;;;;;;;18.20;100.00;98746.73;104436;1269;69138;-62
2023/10/15 01:53:23;;;;;;;;;;;;;;;18.15;100.00;98747.17;104640;1257;72992;-62
2023/10/15 05:44:31;;;;;;;7.50;5.30;;;;;;;17.32;100.00;98740.34;101446;1294;601576;-60
2023/10/15 05:47:00;;;;;;;6.60;5.70;;;;;;;17.32;100.00;98739.83;103623;1269;62414;-60
2023/10/15 05:49:27;;;;;;;;;;;;;;;17.29;100.00;98737.02;103587;1266;60757;-59
2023/10/15 05:51:55;;;;;;;14.10;6.40;;;;;;;17.29;100.00;98743.58;103483;1266;72457;-60
2023/10/15 05:54:24;;;;;;;10.10;6.50;;;;;;;17.32;100.00;98748.48;105365;1266;69117;-59
2023/10/15 05:56:52;;;;;;;8.50;6.60;;;;;;;17.31;100.00;98747.83;106478;1266;73173;-60
2023/10/15 05:59:20;;;;;;;8.00;6.00;;;;;;;17.34;100.00;98747.42;104048;1262;206957;-59
2023/10/15 06:01:47;;;;;;;;;;;;;;;17.40;100.00;98742.64;103897;1265;59525;-60
2023/10/15 06:04:16;;;;;;;8.00;5.60;;;;;;;17.44;100.00;98741.42;104170;1263;71804;-59
2023/10/15 06:06:43;;;;;;;11.80;6.80;;;;;;;17.46;100.00;98741.44;103802;1266;68827;-59
2023/10/15 06:09:11;;;;;;;;;;;;;;;17.46;100.00;98738.58;104118;1264;74515;-60
2023/10/15 06:11:39;;;;;;;;;;;;;;;17.53;100.00;98749.91;104151;1263;61479;-59
2023/10/15 06:14:08;;;;;;;;;;;;;;;17.54;100.00;98746.96;104116;1265;59666;-57
2023/10/15 06:16:37;;;;;;;18.60;6.40;;;;;;;17.57;100.00;98751.90;104204;1268;72845;-60
2023/10/15 06:19:10;;;;;;;13.40;7.00;;;;;;;17.57;100.00;98757.02;104136;1264;69737;-60
2023/10/15 06:21:38;;;;;;;12.70;7.20;;;;;;;17.55;100.00;98763.42;104081;1265;72468;-60
2023/10/15 06:24:06;;;;;;;11.00;6.80;;;;;;;17.57;100.00;98756.31;103848;1263;61563;-59
2023/10/15 06:26:34;;;;;;;8.90;7.40;;;;;;;17.58;100.00;98766.83;104017;1264;60109;-60
2023/10/15 06:29:02;;;;;;;;;;;;;;;17.62;100.00;98767.88;104195;1260;73097;-59
2023/10/15 06:31:30;;;;;;;;;;;;;;;17.68;100.00;98768.05;103857;1266;69229;-61
2023/10/15 06:33:58;;;;;;;9.20;7.80;;;;;;;17.72;100.00;98773.92;104098;1262;75399;-60
2023/10/15 06:36:26;;;;;;;15.30;7.90;;;;;;;17.80;100.00;98778.98;104252;1258;61899;-59
2023/10/15 06:38:56;;;;;;;12.60;8.20;;;;;;;17.84;100.00;98777.21;104220;1260;59861;-59
2023/10/15 06:41:27;;;;;;;14.40;8.20;;;;;;;17.88;100.00;98772.02;105572;1256;73363;-60
2023/10/15 06:43:55;;;;;;;12.60;7.80;;;;;;;18.00;100.00;98772.47;107695;1256;68134;-60
2023/10/15 06:46:26;;;;;;;15.60;7.80;;;;;;;18.06;100.00;98767.80;106001;1257;72525;-59
2023/10/15 06:48:53;;;;;;;17.50;9.00;;;;;;;18.12;100.00;98768.55;104505;1260;61435;-60
2023/10/15 06:51:25;;;;;;;12.30;7.80;;;;;;;18.17;100.00;98768.98;104552;1259;59776;-61
2023/10/15 06:53:53;;;;;;;13.00;8.00;;;;;;;18.25;100.00;98762.23;104685;1262;73398;-61
2023/10/15 06:56:21;;;;;;;15.20;8.90;;;;;;;18.28;100.00;98761.98;104394;1256;71448;-60
2023/10/15 06:58:49;;;;;;;12.60;8.90;;;;;;;18.34;100.00;98761.46;104181;1257;72350;-62
2023/10/15 07:01:17;;;;;;;;;;;;;;;18.38;100.00;98764.11;104627;1261;61431;-60
2023/10/15 07:03:44;;;;;;;14.00;8.40;;;;;;;18.40;100.00;98766.81;104507;1256;59759;-61
2023/10/15 07:06:12;;;;;;;13.40;8.20;;;;;;;18.42;100.00;98765.20;104248;1263;71772;-60
2023/10/15 07:08:40;;;;;;;10.70;8.00;;;;;;;18.45;100.00;98766.89;104657;1262;69378;-60
2023/10/15 07:11:08;;;;;;;11.40;7.70;;;;;;;18.50;100.00;98770.37;104242;1256;71500;-60
2023/10/15 07:13:39;;;;;;;10.70;8.80;;;;;;;18.50;100.00;98773.38;104481;1263;61503;-61
2023/10/15 07:16:07;;;;;;;10.20;7.80;;;;;;;18.54;100.00;98776.02;104765;1256;59670;-61
2023/10/15 07:18:34;;;;;;;14.30;7.80;;;;;;;18.59;100.00;98775.38;104242;1269;73681;-60
2023/10/15 07:21:03;;;;;;;9.10;7.40;;;;;;;18.60;100.00;98776.05;104379;1259;69281;-59
2023/10/15 07:23:31;;;;;;;8.40;7.30;;;;;;;18.60;100.00;98773.89;104226;1257;72377;-60
2023/10/15 07:25:58;;;;;;;11.80;7.20;;;;;;;18.59;100.00;98771.48;103967;1257;62136;-60
2023/10/15 07:28:29;;;;;;;15.80;7.50;;;;;;;18.63;100.00;98773.39;104540;1262;60449;-59
2023/10/15 07:30:57;;;;;;;12.00;7.80;;;;;;;18.69;100.00;98767.27;104522;1260;72973;-61
2023/10/15 07:33:25;;;;;;;12.00;7.50;;;;;;;18.72;100.00;98768.04;104227;1260;69434;-61
2023/10/15 07:35:53;;;;;;;13.90;7.00;;;;;;;18.79;100.00;98774.33;104264;1255;72425;-60
2023/10/15 07:38:24;;;;;;;10.60;7.10;;;;;;;18.83;100.00;98772.88;104158;1257;61530;-60
2023/10/15 07:40:55;;;;;;;13.40;8.00;;;;;;;18.84;100.00;98776.56;104577;1261;59903;-60
2023/10/15 07:43:26;;;;;;;9.20;6.90;;;;;;;18.84;100.00;98782.55;104185;1262;73658;-60
2023/10/15 07:45:53;;;;;;;9.10;6.70;;;;;;;18.87;100.00;98786.77;104389;1259;70006;-61
2023/10/15 07:48:23;;;;;;;12.50;7.00;;;;;;;18.91;100.00;98787.48;104316;1257;72926;-59
2023/10/15 07:50:51;;;;;;;;;;;;;;;18.98;100.00;98788.30;104282;1262;62659;-60
2023/10/15 07:53:18;;;;;;;7.80;6.70;;;;;;;19.00;100.00;98790.91;104259;1269;59394;-59
2023/10/15 07:55:51;;;;;;;9.70;7.70;;;;;;;19.00;100.00;98788.27;104270;1267;73429;-60
2023/10/15 07:58:21;;;;;;;10.80;8.20;;;;;;;19.01;100.00;98788.52;107942;1255;68498;-61
2023/10/15 08:00:50;;;;;;;13.70;7.60;;;;;;;18.99;100.00;98790.84;107574;1255;72544;-60
2023/10/15 08:03:37;;;;;;;13.60;7.90;;;;;;;19.02;100.00;98790.89;105859;1260;61809;-59
2023/10/15 08:06:07;;;;;;;10.20;7.70;;;;;;;19.03;100.00;98792.71;105095;1256;60719;-59
2023/10/15 08:08:35;;;;;;;74.40;48.90;;;;;;;19.05;100.00;98798.21;107789;1255;73247;-59
2023/10/15 08:11:03;;;;;;;44.20;25.50;;;;;;;19.06;100.00;98800.13;105078;1261;69095;-59
2023/10/15 08:13:31;;;;;;;65.60;40.90;;;;;;;19.06;100.00;98797.42;104641;1260;72414;-58
2023/10/15 08:15:58;;;;;;;25.90;19.10;;;;;;;19.08;100.00;98787.84;104213;1257;62366;-58
2023/10/15 08:18:29;;;;;;;27.00;18.90;;;;;;;19.08;100.00;98788.61;104229;1259;59747;-58
2023/10/15 08:20:57;;;;;;;260.10;178.70;;;;;;;19.07;100.00;98791.67;104851;1258;73761;-58
2023/10/15 08:23:24;;;;;;;121.50;73.60;;;;;;;19.06;100.00;98785.58;104414;1262;69978;-58
2023/10/15 08:25:52;;;;;;;;;;;;;;;19.17;100.00;98795.04;104315;1273;72394;-59
2023/10/15 08:28:20;;;;;;;44.20;27.10;;;;;;;19.17;100.00;98794.11;104815;1260;60812;-58
2023/10/15 08:30:53;;;;;;;751.80;534.00;;;;;;;19.24;100.00;98808.98;104717;1259;60076;-59
2023/10/15 08:33:21;;;;;;;493.80;324.50;;;;;;;19.23;100.00;98813.33;104704;1271;73279;-61
2023/10/15 08:35:49;;;;;;;225.80;132.90;;;;;;;19.22;100.00;98810.20;104254;1257;69622;-59
2023/10/15 08:38:18;;;;;;;83.60;49.80;;;;;;;19.21;100.00;98806.95;104120;1261;72436;-60
2023/10/15 08:40:48;;;;;;;40.50;26.20;;;;;;;19.21;100.00;98805.83;104517;1262;61402;-59
2023/10/15 08:43:20;;;;;;;39.10;25.70;;;;;;;19.26;100.00;98807.20;104398;1264;59661;-59
2023/10/15 08:45:48;;;;;;;54.40;37.30;;;;;;;19.26;100.00;98809.88;104069;1266;72904;-59
2023/10/15 08:48:19;;;;;;;30.20;18.90;;;;;;;19.26;100.00;98817.34;105561;1256;69576;-59
2023/10/15 08:50:49;;;;;;;15.60;11.30;;;;;;;19.26;100.00;98819.10;104659;1260;71919;-59
2023/10/15 08:53:17;;;;;;;340.00;235.40;;;;;;;19.27;100.00;98818.98;104568;1256;61548;-59
2023/10/15 08:55:45;;;;;;;163.10;108.90;;;;;;;19.31;100.00;98817.61;104509;1259;59772;-61
2023/10/15 08:58:13;;;;;;;;;;;;;;;19.32;100.00;98822.08;104227;1259;73309;-60
2023/10/15 09:00:43;;;;;;;165.20;134.90;;;;;;;19.35;100.00;98823.04;104347;1256;69060;-60
2023/10/15 09:03:14;;;;;;;95.30;75.00;;;;;;;19.35;100.00;98815.79;104191;1264;72349;-60
2023/10/15 09:05:45;;;;;;;52.50;43.60;;;;;;;19.34;100.00;98821.40;104560;1256;61442;-60
2023/10/15 09:08:13;;;;;;;45.20;40.30;;;;;;;19.33;100.00;98822.75;104522;1258;59854;-60
2023/10/15 09:10:42;;;;;;;24.20;17.50;;;;;;;19.33;100.00;98821.31;104598;1253;72904;-63
2023/10/15 09:13:19;;;;;;;20.90;15.90;;;;;;;19.31;100.00;98824.34;105316;1259;69050;-61
2023/10/15 09:15:52;;;;;;;21.70;12.50;;;;;;;19.34;100.00;98826.50;104599;1259;72528;-62
2023/10/15 09:18:20;;;;;;;191.30;145.70;;;;;;;19.37;100.00;98829.76;104634;1256;60406;-62
2023/10/15 09:20:51;;;;;;;533.70;343.60;;;;;;;19.38;100.00;98831.27;104363;1259;60647;-60
2023/10/15 09:23:23;;;;;;;245.90;133.70;;;;;;;19.38;100.00;98830.40;104578;1265;72876;-64
2023/10/15 09:25:52;;;;;;;92.60;50.90;;;;;;;19.40;100.00;98832.48;104355;1259;69213;-64
2023/10/15 09:28:22;;;;;;;43.60;25.40;;;;;;;19.40;100.00;98833.26;104699;1257;72912;-62
2023/10/15 09:30:51;;;;;;;22.40;15.50;;;;;;;19.38;100.00;98835.87;104346;1253;61310;-63
2023/10/15 09:33:27;;;;;;;21.90;12.50;;;;;;;19.37;100.00;98838.52;104367;1256;59675;-63
2023/10/15 09:35:55;;;;;;;17.00;10.70;;;;;;;19.38;100.00;98838.03;108448;1253;73266;-63
2023/10/15 09:38:23;;;;;;;12.90;9.30;;;;;;;19.38;100.00;98836.94;108521;1253;69336;-63
2023/10/15 09:40:50;;;;;;;12.20;7.70;;;;;;;19.35;100.00;98834.08;108507;1253;72368;-62
2023/10/15 09:43:18;;;;;;;10.30;6.90;;;;;;;19.32;100.00;98838.79;108450;1252;62426;-62
2023/10/15 09:45:46;;;;;;;18.50;6.90;;;;;;;19.30;100.00;98842.69;108507;1253;59738;-60
2023/10/15 09:48:14;;;;;;;;;;;;;;;19.28;100.00;98837.59;108473;1252;72117;-61
2023/10/15 09:50:42;;;;;;;252.50;104.40;;;;;;;19.27;100.00;98836.78;108562;1252;68751;-59
2023/10/15 09:53:10;;;;;;;60.40;26.00;;;;;;;19.26;100.00;98832.36;108509;1253;72516;-58
2023/10/15 09:55:40;;;;;;;20.00;12.60;;;;;;;19.27;100.00;98830.75;108449;1253;61402;-59
2023/10/15 09:58:11;;;;;;;221.90;149.50;;;;;;;19.27;100.00;98837.65;108402;1254;59921;-59
2023/10/15 10:03:32;;;;;;;51.50;32.60;;;;;;;19.28;100.00;98830.06;108299;1255;69643;-62
2023/10/15 10:06:22;;;;;;;21.20;16.50;;;;;;;19.31;100.00;98829.24;108318;1256;73338;-62
2023/10/15 10:09:21;;;;;;;24.80;21.00;;;;;;;19.35;100.00;98834.41;108352;1252;62387;-62
2023/10/15 10:11:52;;;;;;;17.90;13.30;;;;;;;19.33;100.00;98835.12;107980;1253;59754;-62
2023/10/15 10:14:41;;;;;;;14.80;10.20;;;;;;;19.33;100.00;98835.08;108518;1252;73654;-62
2023/10/15 10:17:11;;;;;;;72.60;23.50;;;;;;;19.30;100.00;98842.21;108478;1252;69605;-62
2023/10/15 10:19:40;;;;;;;37.40;13.20;;;;;;;19.28;100.00;98845.08;108335;1257;72435;-62
2023/10/15 10:22:34;;;;;;;17.90;10.10;;;;;;;19.29;100.00;98846.88;108326;1252;62538;-63
2023/10/15 10:25:03;;;;;;;10.90;8.90;;;;;;;19.35;100.00;98850.73;108475;1253;60049;-64
2023/10/15 10:27:43;;;;;;;71.00;38.40;;;;;;;19.36;100.00;98845.48;108554;1253;73660;-63
2023/10/15 10:30:27;;;;;;;70.60;38.50;;;;;;;19.34;100.00;98848.78;108529;1253;70242;-62
2023/10/15 10:32:59;;;;;;;26.70;16.70;;;;;;;19.31;100.00;98846.91;108499;1253;72183;-62
2023/10/15 10:35:27;;;;;;;51.60;35.00;;;;;;;19.29;100.00;98849.02;108136;1251;61464;-61
2023/10/15 10:38:07;;;;;;;114.40;103.30;;;;;;;19.29;100.00;98844.63;108464;1256;61018;-62
2023/10/15 10:40:52;;;;;;;24.20;21.60;;;;;;;19.30;100.00;98842.48;108514;1251;72913;-62
2023/10/15 10:43:24;;;;;;;22.60;20.10;;;;;;;19.31;100.00;98844.40;108518;1253;69194;-62
2023/10/15 10:46:01;;;;;;;11.10;8.10;;;;;;;19.26;100.00;98844.15;108477;1253;72276;-61
2023/10/15 10:48:30;;;;;;;6.10;5.30;;;;;;;19.23;100.00;98849.37;108406;1254;61856;-61
2023/10/15 10:51:13;;;;;;;5.50;4.80;;;;;;;19.20;100.00;98853.06;108334;1253;58570;-61
2023/10/15 10:53:56;;;;;;;62.80;39.90;;;;;;;19.16;100.00;98846.42;108443;1253;73684;-61
2023/10/15 10:56:25;;;;;;;52.30;34.10;;;;;;;19.16;100.00;98844.91;108488;1251;69524;-61
2023/10/15 10:58:54;;;;;;;22.00;15.30;;;;;;;19.19;100.00;98850.07;108525;1252;71245;-63
2023/10/15 11:01:23;;;;;;;15.00;12.60;;;;;;;19.24;100.00;98849.65;108528;1256;61597;-62
2023/10/15 11:03:54;;;;;;;32.60;29.10;;;;;;;19.26;100.00;98846.26;108527;1253;58611;-63
2023/10/15 11:06:22;;;;;;;34.10;28.80;;;;;;;19.28;100.00;98847.68;108517;1251;73006;-64
2023/10/15 11:08:52;;;;;;;22.20;15.70;;;;;;;19.30;100.00;98844.98;108567;1251;69651;-64
2023/10/15 11:11:20;;;;;;;9.00;6.60;;;;;;;19.30;100.00;98845.91;108457;1253;72479;-65
2023/10/15 11:13:48;;;;;;;7.00;4.90;;;;;;;19.23;100.00;98845.61;108471;1252;61439;-64
2023/10/15 11:16:16;;;;;;;8.10;5.20;;;;;;;19.21;100.00;98843.52;108481;1253;59721;-65
2023/10/15 11:18:47;;;;;;;6.20;4.20;;;;;;;19.20;100.00;98848.92;108380;1253;73958;-68
2023/10/15 11:21:17;;;;;;;5.40;4.00;;;;;;;19.21;100.00;98849.52;108489;1251;69503;-62
2023/10/15 11:23:45;;;;;;;5.10;3.70;;;;;;;19.21;100.00;98845.32;108449;1253;73368;-63
2023/10/15 11:26:13;;;;;;;9.10;5.30;;;;;;;19.20;100.00;98848.23;108477;1251;62376;-63
2023/10/15 11:28:40;;;;;;;177.90;93.40;;;;;;;19.20;100.00;98847.69;108372;1254;60085;-63
2023/10/15 11:31:08;;;;;;;;;;;;;;;19.17;100.00;98854.70;108351;1252;72413;-63
2023/10/15 11:33:36;;;;;;;;;;;;;;;19.15;100.00;98857.90;108482;1251;69061;-66
2023/10/15 11:36:06;;;;;;;21.00;10.90;;;;;;;19.14;100.00;98855.89;108532;1252;72528;-66
2023/10/15 11:38:34;;;;;;;39.50;22.80;;;;;;;19.09;100.00;98853.34;108426;1256;61352;-66
2023/10/15 11:41:03;;;;;;;21.80;13.50;;;;;;;19.05;100.00;98852.95;108480;1254;60047;-65
2023/10/15 11:43:34;;;;;;;13.40;10.20;;;;;;;19.02;100.00;98854.81;108607;1251;72667;-65
2023/10/15 11:46:10;;;;;;;6.10;5.50;;;;;;;18.99;100.00;98851.23;108518;1254;70166;-64
2023/10/15 11:48:38;;;;;;;32.10;17.20;;;;;;;18.98;100.00;98848.23;108256;1254;72445;-66
2023/10/15 11:51:08;;;;;;;55.30;30.30;;;;;;;18.99;100.00;98852.83;108338;1254;60721;-65
2023/10/15 11:53:36;;;;;;;24.50;11.00;;;;;;;19.01;100.00;98847.78;108483;1254;60778;-68
2023/10/15 11:56:04;;;;;;;;;;;;;;;18.93;100.00;98844.61;108505;1254;73556;-66
2023/10/15 11:58:32;;;;;;;5.70;3.00;;;;;;;18.77;100.00;98858.30;108388;1254;69637;-65
2023/10/15 12:00:59;;;;;;;21.40;9.90;;;;;;;18.63;100.00;98860.39;108310;1254;72933;-66
2023/10/15 12:03:29;;;;;;;10.60;5.70;;;;;;;18.50;100.00;98855.36;108182;1251;60692;-67
2023/10/15 12:05:58;;;;;;;6.50;3.40;;;;;;;18.38;100.00;98853.73;108267;1252;61281;-66
2023/10/15 12:08:27;;;;;;;11.00;4.40;;;;;;;18.31;100.00;98855.38;108353;1253;74834;-65
2023/10/15 12:10:56;;;;;;;19.80;5.70;;;;;;;18.27;100.00;98864.38;108391;1254;69164;-65
2023/10/15 12:13:24;;;;;;;;;;;;;;;18.21;100.00;98872.39;108501;1253;73371;-65
2023/10/15 12:15:51;;;;;;;14.50;5.00;;;;;;;18.15;100.00;98875.08;108415;1251;63424;-64
2023/10/15 12:18:19;;;;;;;8.00;2.80;;;;;;;18.11;100.00;98878.14;108446;1251;59912;-67
2023/10/15 12:20:51;;;;;;;12.50;4.40;;;;;;;18.11;100.00;98876.64;108444;1253;73667;-66
2023/10/15 12:23:20;;;;;;;8.90;4.30;;;;;;;18.10;100.00;98872.67;108531;1251;69792;-65
2023/10/15 12:25:50;;;;;;;8.40;3.50;;;;;;;18.06;100.00;98863.92;108542;1256;72462;-64
2023/10/15 12:28:17;;;;;;;11.10;7.20;;;;;;;18.02;100.00;98866.91;108532;1253;62311;-64
2023/10/15 12:30:45;;;;;;;142.60;85.10;;;;;;;18.01;100.00;98863.14;108529;1252;59711;-65
2023/10/15 12:33:15;;;;;;;161.20;96.00;;;;;;;17.98;100.00;98871.02;108442;1251;73613;-64
2023/10/15 12:35:44;;;;;;;54.10;31.60;;;;;;;17.97;100.00;98878.89;108506;1254;70057;-64
2023/10/15 12:41:04;;;;;;;31.80;12.00;;;;;;;17.42;100.00;98875.52;101553;1290;600825;-61
2023/10/15 12:43:33;;;;;;;14.80;7.40;;;;;;;17.81;100.00;98870.29;103926;1266;62457;-63
2023/10/15 12:46:00;;;;;;;;;;;;;;;17.71;100.00;98867.09;104137;1263;60078;-62
2023/10/15 12:48:29;;;;;;;;;;;;;;;17.76;100.00;98877.51;103941;1285;71239;-62
2023/10/15 12:50:57;;;;;;;34.10;8.60;;;;;;;17.72;100.00;98878.01;104497;1257;69056;-62
2023/10/15 12:53:25;;;;;;;21.90;7.40;;;;;;;17.66;100.00;98882.88;108070;1254;72884;-62
2023/10/15 12:55:54;;;;;;;24.90;9.70;;;;;;;17.62;100.00;98886.25;104130;1254;389318;-62
2023/10/15 12:58:25;;;;;;;33.10;13.00;;;;;;;17.55;100.00;98888.48;104374;1264;59699;-61
2023/10/15 13:00:53;;;;;;;19.40;9.30;;;;;;;17.49;100.00;98889.10;104344;1260;72148;-61
2023/10/15 13:03:20;;;;;;;17.20;8.00;;;;;;;17.45;100.00;98894.23;104290;1273;69080;-62
2023/10/15 13:05:48;;;;;;;17.70;8.20;;;;;;;17.38;100.00;98896.73;104714;1253;72360;-62
2023/10/15 13:08:18;;;;;;;17.10;8.30;;;;;;;17.36;100.00;98894.64;104506;1253;61590;-62
2023/10/15 13:10:46;;;;;;;;;;;;;;;17.31;100.00;98893.23;104397;1257;59796;-62
2023/10/15 13:13:14;;;;;;;;;;;;;;;17.29;100.00;98900.16;104312;1253;73673;-64
2023/10/15 13:15:41;;;;;;;10.10;4.80;;;;;;;17.27;100.00;98895.15;104540;1252;69997;-62
2023/10/15 13:18:09;;;;;;;8.60;4.50;;;;;;;17.25;100.00;98892.14;104465;1257;71358;-62
2023/10/15 13:20:39;;;;;;;6.70;4.00;;;;;;;17.22;100.00;98895.75;104386;1257;61402;-65
2023/10/15 13:23:06;;;;;;;10.20;5.20;;;;;;;17.21;100.00;98896.61;104398;1253;60752;-66
2023/10/15 13:25:36;;;;;;;6.60;4.10;;;;;;;17.19;100.00;98900.67;104587;1254;73190;-66
2023/10/15 13:28:04;;;;;;;8.30;4.40;;;;;;;17.16;100.00;98897.85;104444;1254;70204;-66
2023/10/15 13:30:32;;;;;;;;;;;;;;;17.14;100.00;98897.83;104438;1251;73136;-67
2023/10/15 13:33:01;;;;;;;;;;;;;;;17.13;100.00;98899.48;104491;1254;61386;-66
2023/10/15 13:35:30;;;;;;;7.00;4.30;;;;;;;17.13;100.00;98902.35;104877;1254;59926;-66
2023/10/15 13:37:58;;;;;;;7.90;4.60;;;;;;;17.11;100.00;98911.52;104445;1267;71973;-64
2023/10/15 13:40:28;;;;;;;4.60;3.50;;;;;;;17.07;100.00;98909.89;105028;1254;69108;-66
2023/10/15 13:42:58;;;;;;;7.40;3.80;;;;;;;17.05;100.00;98908.14;104582;1253;73047;-67
2023/10/15 13:45:27;;;;;;;8.40;3.20;;;;;;;17.02;100.00;98907.31;104507;1253;61473;-67
2023/10/15 13:47:57;;;;;;;5.10;3.00;;;;;;;17.01;100.00;98901.92;104493;1251;59825;-66
2023/10/15 13:50:26;;;;;;;6.70;3.60;;;;;;;17.00;100.00;98905.20;104459;1256;73264;-66
